sensor_id;sensor_type;location;lat;lon;timestamp;P1;durP1;ratioP1;P2;durP2;ratioP2
38252;SDS011;24785;52.372;20.672;2022-11-15T00:05:26;28.40;;;12.43;;
38252;SDS011;24785;52.372;20.672;2022-11-15T00:15:27;25.40;;;12.85;;
38252;SDS011;24785;52.372;20.672;2022-11-15T00:25:27;33.50;;;13.10;;
38252;SDS011;24785;52.372;20.672;2022-11-15T00:35:30;31.50;;;13.85;;
38252;SDS011;24785;52.372;20.672;2022-11-15T00:45:33;34.67;;;14.40;;
38252;SDS011;24785;52.372;20.672;2022-11-15T00:55:34;39.45;;;15.90;;
38252;SDS011;24785;52.372;20.672;2022-11-15T01:05:36;39.22;;;16.65;;
38252;SDS011;24785;52.372;20.672;2022-11-15T01:15:39;51.25;;;20.42;;
38252;SDS011;24785;52.372;20.672;2022-11-15T01:35:42;66.32;;;23.92;;
38252;SDS011;24785;52.372;20.672;2022-11-15T01:45:43;54.05;;;20.55;;
38252;SDS011;24785;52.372;20.672;2022-11-15T01:55:47;63.22;;;24.33;;
38252;SDS011;24785;52.372;20.672;2022-11-15T02:05:48;60.45;;;23.80;;
38252;SDS011;24785;52.372;20.672;2022-11-15T02:36:49;52.85;;;20.50;;
38252;SDS011;24785;52.372;20.672;2022-11-15T02:47:04;56.83;;;21.50;;
38252;SDS011;24785;52.372;20.672;2022-11-15T02:57:16;47.83;;;19.60;;
38252;SDS011;24785;52.372;20.672;2022-11-15T03:07:30;55.95;;;20.58;;
38252;SDS011;24785;52.372;20.672;2022-11-15T03:17:40;60.88;;;21.48;;
38252;SDS011;24785;52.372;20.672;2022-11-15T03:27:49;52.47;;;20.63;;
38252;SDS011;24785;52.372;20.672;2022-11-15T03:37:55;61.58;;;22.67;;
38252;SDS011;24785;52.372;20.672;2022-11-15T03:48:10;56.13;;;21.15;;
38252;SDS011;24785;52.372;20.672;2022-11-15T03:58:15;52.50;;;19.40;;
38252;SDS011;24785;52.372;20.672;2022-11-15T04:08:16;53.15;;;19.05;;
38252;SDS011;24785;52.372;20.672;2022-11-15T04:18:17;48.60;;;19.70;;
38252;SDS011;24785;52.372;20.672;2022-11-15T04:28:18;57.60;;;19.67;;
38252;SDS011;24785;52.372;20.672;2022-11-15T04:38:19;56.42;;;21.15;;
38252;SDS011;24785;52.372;20.672;2022-11-15T04:48:20;66.00;;;20.35;;
38252;SDS011;24785;52.372;20.672;2022-11-15T04:58:21;59.90;;;20.70;;
38252;SDS011;24785;52.372;20.672;2022-11-15T05:08:21;58.50;;;20.67;;
38252;SDS011;24785;52.372;20.672;2022-11-15T05:18:22;51.85;;;19.10;;
38252;SDS011;24785;52.372;20.672;2022-11-15T05:28:23;52.08;;;18.20;;
38252;SDS011;24785;52.372;20.672;2022-11-15T05:38:24;57.67;;;18.08;;
38252;SDS011;24785;52.372;20.672;2022-11-15T05:48:25;51.45;;;19.45;;
38252;SDS011;24785;52.372;20.672;2022-11-15T05:58:27;51.53;;;18.13;;
38252;SDS011;24785;52.372;20.672;2022-11-15T06:08:28;54.35;;;17.83;;
38252;SDS011;24785;52.372;20.672;2022-11-15T06:18:31;52.70;;;17.60;;
38252;SDS011;24785;52.372;20.672;2022-11-15T06:28:34;46.03;;;16.75;;
38252;SDS011;24785;52.372;20.672;2022-11-15T06:38:35;53.33;;;18.30;;
38252;SDS011;24785;52.372;20.672;2022-11-15T06:48:36;48.42;;;16.05;;
38252;SDS011;24785;52.372;20.672;2022-11-15T06:58:37;50.95;;;16.13;;
38252;SDS011;24785;52.372;20.672;2022-11-15T07:08:38;58.80;;;19.00;;
38252;SDS011;24785;52.372;20.672;2022-11-15T07:18:39;51.70;;;15.90;;
38252;SDS011;24785;52.372;20.672;2022-11-15T07:28:41;55.65;;;18.75;;
38252;SDS011;24785;52.372;20.672;2022-11-15T07:38:41;61.95;;;17.70;;
38252;SDS011;24785;52.372;20.672;2022-11-15T07:48:42;47.45;;;16.23;;
38252;SDS011;24785;52.372;20.672;2022-11-15T07:58:45;52.92;;;16.42;;
38252;SDS011;24785;52.372;20.672;2022-11-15T08:18:47;45.88;;;15.77;;
38252;SDS011;24785;52.372;20.672;2022-11-15T08:28:48;57.10;;;18.13;;
38252;SDS011;24785;52.372;20.672;2022-11-15T08:38:49;63.92;;;19.20;;
38252;SDS011;24785;52.372;20.672;2022-11-15T08:48:49;58.60;;;19.25;;
38252;SDS011;24785;52.372;20.672;2022-11-15T08:58:50;53.70;;;17.45;;
38252;SDS011;24785;52.372;20.672;2022-11-15T09:08:51;54.10;;;19.02;;
38252;SDS011;24785;52.372;20.672;2022-11-15T09:18:52;54.10;;;18.55;;
38252;SDS011;24785;52.372;20.672;2022-11-15T09:28:54;46.00;;;15.70;;
38252;SDS011;24785;52.372;20.672;2022-11-15T09:38:56;48.92;;;18.40;;
38252;SDS011;24785;52.372;20.672;2022-11-15T09:49:01;52.50;;;18.33;;
38252;SDS011;24785;52.372;20.672;2022-11-15T09:59:10;52.85;;;17.23;;
38252;SDS011;24785;52.372;20.672;2022-11-15T10:09:38;47.17;;;18.27;;
38252;SDS011;24785;52.372;20.672;2022-11-15T10:30:12;52.05;;;19.58;;
38252;SDS011;24785;52.372;20.672;2022-11-15T10:40:21;48.10;;;18.02;;
38252;SDS011;24785;52.372;20.672;2022-11-15T10:50:28;54.03;;;17.65;;
38252;SDS011;24785;52.372;20.672;2022-11-15T11:00:35;55.63;;;18.40;;
38252;SDS011;24785;52.372;20.672;2022-11-15T11:10:40;53.75;;;19.40;;
38252;SDS011;24785;52.372;20.672;2022-11-15T11:20:58;59.10;;;20.02;;
38252;SDS011;24785;52.372;20.672;2022-11-15T11:31:16;81.55;;;39.25;;
38252;SDS011;24785;52.372;20.672;2022-11-15T12:02:41;61.83;;;20.13;;
38252;SDS011;24785;52.372;20.672;2022-11-15T12:23:08;46.65;;;17.30;;
38252;SDS011;24785;52.372;20.672;2022-11-15T12:43:38;56.90;;;21.25;;
38252;SDS011;24785;52.372;20.672;2022-11-15T12:53:40;53.40;;;19.13;;
38252;SDS011;24785;52.372;20.672;2022-11-15T13:24:40;63.33;;;22.75;;
38252;SDS011;24785;52.372;20.672;2022-11-15T13:34:44;59.88;;;20.35;;
38252;SDS011;24785;52.372;20.672;2022-11-15T13:45:21;58.80;;;20.58;;
38252;SDS011;24785;52.372;20.672;2022-11-15T13:55:20;62.00;;;21.85;;
38252;SDS011;24785;52.372;20.672;2022-11-15T14:05:23;62.00;;;22.20;;
38252;SDS011;24785;52.372;20.672;2022-11-15T14:15:27;70.63;;;22.57;;
38252;SDS011;24785;52.372;20.672;2022-11-15T14:25:31;79.40;;;23.63;;
38252;SDS011;24785;52.372;20.672;2022-11-15T14:35:33;70.57;;;21.95;;
38252;SDS011;24785;52.372;20.672;2022-11-15T14:45:39;90.80;;;24.63;;
38252;SDS011;24785;52.372;20.672;2022-11-15T14:55:41;70.83;;;21.07;;
38252;SDS011;24785;52.372;20.672;2022-11-15T15:05:42;77.90;;;23.67;;
38252;SDS011;24785;52.372;20.672;2022-11-15T15:15:44;64.77;;;20.43;;
38252;SDS011;24785;52.372;20.672;2022-11-15T15:25:46;70.05;;;21.85;;
38252;SDS011;24785;52.372;20.672;2022-11-15T15:35:49;81.32;;;22.80;;
38252;SDS011;24785;52.372;20.672;2022-11-15T15:45:50;73.30;;;20.35;;
38252;SDS011;24785;52.372;20.672;2022-11-15T15:55:51;64.63;;;19.80;;
38252;SDS011;24785;52.372;20.672;2022-11-15T16:05:52;79.90;;;24.75;;
38252;SDS011;24785;52.372;20.672;2022-11-15T16:15:53;74.35;;;22.13;;
38252;SDS011;24785;52.372;20.672;2022-11-15T16:25:55;85.47;;;23.73;;
38252;SDS011;24785;52.372;20.672;2022-11-15T16:35:56;122.28;;;34.78;;
38252;SDS011;24785;52.372;20.672;2022-11-15T16:45:57;66.60;;;21.30;;
38252;SDS011;24785;52.372;20.672;2022-11-15T16:55:58;71.25;;;22.50;;
38252;SDS011;24785;52.372;20.672;2022-11-15T17:05:59;136.43;;;43.92;;
38252;SDS011;24785;52.372;20.672;2022-11-15T17:16:04;64.57;;;18.00;;
38252;SDS011;24785;52.372;20.672;2022-11-15T17:26:07;97.15;;;27.27;;
38252;SDS011;24785;52.372;20.672;2022-11-15T17:36:11;72.47;;;21.73;;
38252;SDS011;24785;52.372;20.672;2022-11-15T17:46:13;59.70;;;16.92;;
38252;SDS011;24785;52.372;20.672;2022-11-15T17:56:21;56.45;;;15.18;;
38252;SDS011;24785;52.372;20.672;2022-11-15T18:06:24;71.18;;;20.75;;
38252;SDS011;24785;52.372;20.672;2022-11-15T18:16:26;97.50;;;30.70;;
38252;SDS011;24785;52.372;20.672;2022-11-15T18:26:30;90.45;;;31.85;;
38252;SDS011;24785;52.372;20.672;2022-11-15T18:36:31;76.10;;;25.85;;
38252;SDS011;24785;52.372;20.672;2022-11-15T18:46:32;76.65;;;24.05;;
38252;SDS011;24785;52.372;20.672;2022-11-15T18:56:34;65.90;;;22.87;;
38252;SDS011;24785;52.372;20.672;2022-11-15T19:06:36;47.42;;;14.82;;
38252;SDS011;24785;52.372;20.672;2022-11-15T19:16:42;58.83;;;21.45;;
38252;SDS011;24785;52.372;20.672;2022-11-15T19:26:45;43.85;;;15.05;;
38252;SDS011;24785;52.372;20.672;2022-11-15T19:36:46;48.45;;;16.05;;
38252;SDS011;24785;52.372;20.672;2022-11-15T19:46:47;41.25;;;14.38;;
38252;SDS011;24785;52.372;20.672;2022-11-15T19:56:48;65.05;;;22.10;;
38252;SDS011;24785;52.372;20.672;2022-11-15T20:06:49;38.80;;;13.13;;
38252;SDS011;24785;52.372;20.672;2022-11-15T20:16:50;41.65;;;12.75;;
38252;SDS011;24785;52.372;20.672;2022-11-15T20:26:50;44.67;;;13.57;;
38252;SDS011;24785;52.372;20.672;2022-11-15T20:36:51;43.17;;;13.75;;
38252;SDS011;24785;52.372;20.672;2022-11-15T20:46:52;37.38;;;10.68;;
38252;SDS011;24785;52.372;20.672;2022-11-15T20:56:53;39.20;;;12.65;;
38252;SDS011;24785;52.372;20.672;2022-11-15T21:06:54;37.95;;;12.00;;
38252;SDS011;24785;52.372;20.672;2022-11-15T21:26:58;40.00;;;15.65;;
38252;SDS011;24785;52.372;20.672;2022-11-15T21:36:59;33.78;;;11.48;;
38252;SDS011;24785;52.372;20.672;2022-11-15T21:47:00;41.70;;;16.38;;
38252;SDS011;24785;52.372;20.672;2022-11-15T21:57:00;35.70;;;13.10;;
38252;SDS011;24785;52.372;20.672;2022-11-15T22:07:01;40.33;;;11.93;;
38252;SDS011;24785;52.372;20.672;2022-11-15T22:17:02;33.75;;;12.55;;
38252;SDS011;24785;52.372;20.672;2022-11-15T22:27:04;37.03;;;12.65;;
38252;SDS011;24785;52.372;20.672;2022-11-15T22:37:05;44.85;;;14.90;;
38252;SDS011;24785;52.372;20.672;2022-11-15T22:47:06;55.03;;;18.25;;
38252;SDS011;24785;52.372;20.672;2022-11-15T22:57:07;48.30;;;17.10;;
38252;SDS011;24785;52.372;20.672;2022-11-15T23:07:08;51.00;;;18.40;;
38252;SDS011;24785;52.372;20.672;2022-11-15T23:17:09;52.42;;;17.50;;
38252;SDS011;24785;52.372;20.672;2022-11-15T23:27:10;44.17;;;13.95;;
38252;SDS011;24785;52.372;20.672;2022-11-15T23:37:14;48.05;;;15.13;;
38252;SDS011;24785;52.372;20.672;2022-11-15T23:47:16;46.97;;;16.17;;
38252;SDS011;24785;52.372;20.672;2022-11-15T23:57:18;39.08;;;13.27;;
